Westlake Village, California
Current Conditions -  °F | °C
As of 5:55 PM on Saturday 20 Dec 2014 (Local Time) from KCMA Reporting Station
Clear Clear  
Wind Chill: 58°   Ceiling: Unl
Heat Index: 58°   Visibility: 10mi
Dew Point: 54°   Wind: 6mph
Humidity: 87%   Direction: 40°NE
Pressure: 30.12"   Gusts: NA
Location:  34.15°N, 118.81°W
Report Text: KCMA 210155Z 04005KT 10SM CLR 14/12 A3012 RMK AO2 SLP207 T01440122
Loading
Personal Weather Stations






























Interactive Weather Map New forecast layout! Learn more

10-Day Weather Forecast

Advertisements
Track Severe Weather on mobile